Time;durP1;ratioP1;P1;durP2;ratioP2;P2;SDS_P1;SDS_P2;PMS_P1;PMS_P2;Temp;Humidity;BMP_temperature;BMP_pressure;BME280_temperature;BME280_humidity;BME280_pressure;Samples;Min_cycle;Max_cycle;Signal;HPM_P1;HPM_P2
2022/06/27 00:01:24;;;;;;;4.70;4.40;;;;;;;;;;1880983;76;26257;-50
2022/06/27 00:03:51;;;;;;;5.45;4.60;;;;;;;;;;1872567;75;26688;-63
2022/06/27 00:06:23;;;;;;;4.87;4.58;;;;;;;;;;1876168;75;26508;-51
2022/06/27 00:08:49;;;;;;;4.28;4.08;;;;;;;;;;1888042;75;26349;-49
2022/06/27 00:11:17;;;;;;;4.55;4.25;;;;;;;;;;1878274;75;26254;-58
2022/06/27 00:13:45;;;;;;;4.55;4.25;;;;;;;;;;1872101;75;26214;-54
2022/06/27 00:16:12;;;;;;;5.05;4.60;;;;;;;;;;1877591;75;26262;-49
2022/06/27 00:18:40;;;;;;;4.67;4.25;;;;;;;;;;1880004;75;26279;-51
2022/06/27 00:21:08;;;;;;;4.35;4.15;;;;;;;;;;1874641;76;26280;-54
2022/06/27 00:23:35;;;;;;;4.78;4.12;;;;;;;;;;1874115;75;26283;-59
2022/06/27 00:26:02;;;;;;;4.20;4.00;;;;;;;;;;1880550;76;26292;-52
2022/06/27 00:28:29;;;;;;;4.62;4.22;;;;;;;;;;1872032;75;26837;-53
2022/06/27 00:30:57;;;;;;;4.37;4.15;;;;;;;;;;1879996;75;26839;-48
2022/06/27 00:33:24;;;;;;;4.80;4.50;;;;;;;;;;1874808;75;26708;-48
2022/06/27 00:35:53;;;;;;;4.40;4.10;;;;;;;;;;1868741;75;26353;-52
2022/06/27 00:38:20;;;;;;;4.37;4.17;;;;;;;;;;1878198;75;26264;-51
2022/06/27 00:40:48;;;;;;;4.10;3.90;;;;;;;;;;1872484;75;26688;-50
2022/06/27 00:43:15;;;;;;;4.40;4.10;;;;;;;;;;1884148;75;26183;-48
2022/06/27 00:45:42;;;;;;;4.70;4.40;;;;;;;;;;1892104;75;26210;-51
2022/06/27 00:48:10;;;;;;;4.70;4.40;;;;;;;;;;1876467;76;26312;-52
2022/06/27 00:50:37;;;;;;;4.47;4.17;;;;;;;;;;1888866;75;26238;-54
2022/06/27 00:53:04;;;;;;;4.92;4.45;;;;;;;;;;1877052;75;26694;-58
2022/06/27 00:55:32;;;;;;;4.08;3.77;;;;;;;;;;1872204;76;26237;-49
2022/06/27 00:58:00;;;;;;;4.67;4.03;;;;;;;;;;1877226;76;26257;-49
2022/06/27 01:00:29;;;;;;;4.20;4.00;;;;;;;;;;1880689;76;26217;-47
2022/06/27 01:02:56;;;;;;;4.55;4.17;;;;;;;;;;1882998;75;26287;-47
2022/06/27 01:05:23;;;;;;;4.55;4.25;;;;;;;;;;1880002;75;26273;-49
2022/06/27 01:07:51;;;;;;;4.33;4.03;;;;;;;;;;1863940;75;26760;-50
2022/06/27 01:10:18;;;;;;;4.80;4.40;;;;;;;;;;1843868;75;26334;-48
2022/06/27 01:12:45;;;;;;;4.22;3.90;;;;;;;;;;1864190;75;27546;-50
2022/06/27 01:15:13;;;;;;;4.00;3.75;;;;;;;;;;1869941;76;26627;-53
2022/06/27 01:17:40;;;;;;;4.28;4.08;;;;;;;;;;1880766;75;26363;-58
2022/06/27 01:20:08;;;;;;;4.40;4.10;;;;;;;;;;1888791;75;26763;-49
2022/06/27 01:22:36;;;;;;;4.05;3.85;;;;;;;;;;1899773;75;26253;-57
2022/06/27 01:25:03;;;;;;;4.12;3.92;;;;;;;;;;1868114;75;26720;-53
2022/06/27 01:27:31;;;;;;;4.45;4.05;;;;;;;;;;1878585;75;26261;-53
2022/06/27 01:29:59;;;;;;;4.08;3.87;;;;;;;;;;1879240;75;27150;-52
2022/06/27 01:32:27;;;;;;;4.12;3.92;;;;;;;;;;1876627;75;26281;-49
2022/06/27 01:34:54;;;;;;;4.05;3.85;;;;;;;;;;1880167;75;26336;-50
2022/06/27 01:37:21;;;;;;;4.40;4.10;;;;;;;;;;1886748;75;26753;-50
2022/06/27 01:39:49;;;;;;;4.17;3.87;;;;;;;;;;1876835;76;26834;-49
2022/06/27 01:42:17;;;;;;;4.42;4.20;;;;;;;;;;1876045;75;26378;-47
2022/06/27 01:44:44;;;;;;;4.20;4.00;;;;;;;;;;1874770;74;26268;-52
2022/06/27 01:47:11;;;;;;;9.40;4.40;;;;;;;;;;1889841;76;26241;-48
2022/06/27 01:49:39;;;;;;;4.60;4.20;;;;;;;;;;1886835;74;26276;-54
2022/06/27 01:52:07;;;;;;;4.40;4.10;;;;;;;;;;1884191;74;26767;-49
2022/06/27 01:54:35;;;;;;;4.00;3.80;;;;;;;;;;1879749;74;26287;-48
2022/06/27 01:57:05;;;;;;;4.37;4.03;;;;;;;;;;1890002;76;26313;-53
2022/06/27 01:59:33;;;;;;;4.40;4.15;;;;;;;;;;1888465;74;26843;-54
2022/06/27 02:02:01;;;;;;;4.28;4.03;;;;;;;;;;1886402;75;26253;-48
2022/06/27 02:04:29;;;;;;;3.90;3.70;;;;;;;;;;1887438;76;26720;-47
2022/06/27 02:06:58;;;;;;;4.03;3.83;;;;;;;;;;1872352;76;26252;-51
2022/06/27 02:09:25;;;;;;;3.77;3.58;;;;;;;;;;1872100;75;26910;-52
2022/06/27 02:11:55;;;;;;;4.10;3.90;;;;;;;;;;1890021;76;26300;-49
2022/06/27 02:14:22;;;;;;;4.35;4.05;;;;;;;;;;1891021;74;26448;-54
2022/06/27 02:16:50;;;;;;;4.75;3.90;;;;;;;;;;1876679;74;27427;-51
2022/06/27 02:19:18;;;;;;;4.10;3.85;;;;;;;;;;1878634;74;26244;-53
2022/06/27 02:21:46;;;;;;;4.08;3.85;;;;;;;;;;1889688;76;26824;-50
2022/06/27 02:24:14;;;;;;;3.90;3.70;;;;;;;;;;1886123;74;26206;-50
2022/06/27 02:26:42;;;;;;;3.80;3.60;;;;;;;;;;1890168;76;26226;-53
2022/06/27 02:29:10;;;;;;;4.20;3.90;;;;;;;;;;1889561;74;26352;-49
2022/06/27 02:31:47;;;;;;;3.80;3.60;;;;;;;;;;1894750;74;26430;-55
2022/06/27 02:34:15;;;;;;;4.10;3.90;;;;;;;;;;1888924;74;26252;-48
2022/06/27 02:36:44;;;;;;;3.87;3.67;;;;;;;;;;1888225;74;26249;-47
2022/06/27 02:39:12;;;;;;;4.30;4.00;;;;;;;;;;1881324;74;26303;-49
2022/06/27 02:41:40;;;;;;;3.90;3.70;;;;;;;;;;1877391;74;26352;-51
2022/06/27 02:44:09;;;;;;;3.87;3.67;;;;;;;;;;1880628;75;26272;-58
2022/06/27 02:46:37;;;;;;;3.87;3.67;;;;;;;;;;1880623;76;26277;-50
2022/06/27 02:49:04;;;;;;;3.92;3.60;;;;;;;;;;1881220;75;26239;-49
2022/06/27 02:51:33;;;;;;;4.15;3.85;;;;;;;;;;1874894;76;26249;-49
2022/06/27 02:54:11;;;;;;;4.00;3.70;;;;;;;;;;1877018;75;26811;-50
2022/06/27 02:56:47;;;;;;;3.80;3.60;;;;;;;;;;1868982;75;26755;-48
2022/06/27 02:59:18;;;;;;;3.90;3.60;;;;;;;;;;1883293;75;26362;-49
2022/06/27 03:01:46;;;;;;;3.83;3.62;;;;;;;;;;1866472;76;26558;-47
2022/06/27 03:04:14;;;;;;;4.12;3.92;;;;;;;;;;1870356;75;26271;-49
2022/06/27 03:06:44;;;;;;;3.92;3.72;;;;;;;;;;1867900;75;26287;-50
2022/06/27 03:09:11;;;;;;;3.98;3.47;;;;;;;;;;1873633;75;26399;-48
2022/06/27 03:11:38;;;;;;;4.05;3.80;;;;;;;;;;1880746;75;26284;-54
2022/06/27 03:14:06;;;;;;;4.10;3.90;;;;;;;;;;1878982;76;26214;-49
2022/06/27 03:16:34;;;;;;;4.15;3.85;;;;;;;;;;1881168;75;26806;-49
2022/06/27 03:19:03;;;;;;;4.30;3.98;;;;;;;;;;1880209;75;26762;-47
2022/06/27 03:21:30;;;;;;;4.03;3.83;;;;;;;;;;1880720;76;26285;-47
2022/06/27 03:23:58;;;;;;;3.98;3.77;;;;;;;;;;1880729;75;26685;-49
2022/06/27 03:26:25;;;;;;;3.80;3.60;;;;;;;;;;1878767;75;26245;-48
2022/06/27 03:28:52;;;;;;;3.87;3.58;;;;;;;;;;1869582;75;26257;-48
2022/06/27 03:31:20;;;;;;;3.98;3.77;;;;;;;;;;1877698;76;26245;-49
2022/06/27 03:33:47;;;;;;;4.20;3.90;;;;;;;;;;1878852;76;26720;-55
2022/06/27 03:36:14;;;;;;;4.00;3.80;;;;;;;;;;1879437;75;26253;-49
2022/06/27 03:38:41;;;;;;;3.85;3.65;;;;;;;;;;1881717;75;26187;-52
2022/06/27 03:41:09;;;;;;;16.10;3.92;;;;;;;;;;1893107;75;26332;-53
2022/06/27 03:43:36;;;;;;;4.03;3.72;;;;;;;;;;1890182;74;26356;-56
2022/06/27 03:46:03;;;;;;;3.98;3.77;;;;;;;;;;1888779;74;26269;-50
2022/06/27 03:51:16;;;;;;;4.12;3.92;;;;;;;;;;1872968;74;26865;-49
2022/06/27 03:53:43;;;;;;;3.52;3.42;;;;;;;;;;1880939;74;26635;-60
2022/06/27 03:56:10;;;;;;;3.77;3.58;;;;;;;;;;1882665;74;26241;-52
2022/06/27 03:58:38;;;;;;;3.77;3.58;;;;;;;;;;1898501;74;26242;-49
2022/06/27 04:01:05;;;;;;;3.92;3.70;;;;;;;;;;1899091;74;26265;-58
2022/06/27 04:03:33;;;;;;;3.70;3.50;;;;;;;;;;1887397;74;26290;-51
2022/06/27 04:06:00;;;;;;;3.83;3.52;;;;;;;;;;1893273;74;26259;-48
2022/06/27 04:08:27;;;;;;;4.17;3.87;;;;;;;;;;1883103;75;26328;-51
2022/06/27 04:10:56;;;;;;;3.67;3.33;;;;;;;;;;1897854;74;26322;-52
2022/06/27 04:13:23;;;;;;;3.80;3.60;;;;;;;;;;1885505;76;26342;-49
2022/06/27 04:15:50;;;;;;;3.62;3.42;;;;;;;;;;1890491;74;26707;-57
2022/06/27 04:18:18;;;;;;;3.67;3.47;;;;;;;;;;1890317;76;26666;-55
2022/06/27 04:20:45;;;;;;;3.33;3.22;;;;;;;;;;1873797;74;26257;-50
2022/06/27 04:23:12;;;;;;;3.72;3.42;;;;;;;;;;1890005;74;26323;-48
2022/06/27 04:25:42;;;;;;;3.50;3.40;;;;;;;;;;1869512;74;26283;-51
2022/06/27 04:28:09;;;;;;;5.65;3.60;;;;;;;;;;1880187;74;26346;-52
2022/06/27 04:30:36;;;;;;;3.90;3.70;;;;;;;;;;1873393;76;26766;-56
2022/06/27 04:33:03;;;;;;;3.72;3.52;;;;;;;;;;1886631;74;26720;-50
2022/06/27 04:35:32;;;;;;;3.55;3.35;;;;;;;;;;1889501;76;26318;-51
2022/06/27 04:38:00;;;;;;;3.95;3.75;;;;;;;;;;1886515;74;26245;-47
2022/06/27 04:40:27;;;;;;;3.77;3.58;;;;;;;;;;1893065;74;26251;-48
2022/06/27 04:42:56;;;;;;;5.08;3.50;;;;;;;;;;1885969;74;26296;-47
2022/06/27 04:45:24;;;;;;;3.67;3.47;;;;;;;;;;1889882;75;26722;-53
2022/06/27 04:47:52;;;;;;;3.60;3.40;;;;;;;;;;1870865;74;26379;-51
2022/06/27 04:50:21;;;;;;;3.50;3.35;;;;;;;;;;1896028;74;26384;-54
2022/06/27 04:52:49;;;;;;;3.70;3.50;;;;;;;;;;1898947;74;26324;-48
2022/06/27 04:55:17;;;;;;;3.50;3.30;;;;;;;;;;1892831;75;26655;-49
2022/06/27 04:57:48;;;;;;;3.87;3.55;;;;;;;;;;1898586;74;26748;-48
2022/06/27 05:00:16;;;;;;;4.10;3.75;;;;;;;;;;1896062;74;26272;-57
2022/06/27 05:02:44;;;;;;;3.72;3.50;;;;;;;;;;1890521;75;26268;-52
2022/06/27 05:05:11;;;;;;;4.03;3.70;;;;;;;;;;1886973;75;26740;-50
2022/06/27 05:07:39;;;;;;;3.45;3.33;;;;;;;;;;1891598;75;26300;-50
2022/06/27 05:10:08;;;;;;;3.72;3.50;;;;;;;;;;1889655;74;26264;-52
2022/06/27 05:12:35;;;;;;;3.33;3.12;;;;;;;;;;1893023;74;26266;-51
2022/06/27 05:15:03;;;;;;;3.40;3.20;;;;;;;;;;1896251;74;26260;-48
2022/06/27 05:17:30;;;;;;;3.62;3.42;;;;;;;;;;1899374;74;26256;-47
2022/06/27 05:19:57;;;;;;;3.72;3.42;;;;;;;;;;1885664;75;26719;-52
2022/06/27 05:22:24;;;;;;;3.58;3.37;;;;;;;;;;1890143;74;26323;-52
2022/06/27 05:24:52;;;;;;;3.42;3.33;;;;;;;;;;1892837;74;26265;-54
2022/06/27 05:27:19;;;;;;;3.15;3.00;;;;;;;;;;1890517;75;26845;-52
2022/06/27 05:29:46;;;;;;;3.60;3.40;;;;;;;;;;1898219;74;26254;-50
2022/06/27 05:32:14;;;;;;;3.15;3.05;;;;;;;;;;1905549;74;26280;-47
2022/06/27 05:34:41;;;;;;;3.40;3.20;;;;;;;;;;1893500;74;26649;-53
2022/06/27 05:37:09;;;;;;;3.50;3.30;;;;;;;;;;1892243;74;26692;-49
2022/06/27 05:39:36;;;;;;;3.50;3.30;;;;;;;;;;1891859;74;26346;-54
2022/06/27 05:42:05;;;;;;;5.53;3.40;;;;;;;;;;1893335;75;26345;-48
2022/06/27 05:44:32;;;;;;;3.40;3.20;;;;;;;;;;1888756;76;26771;-49
2022/06/27 05:46:59;;;;;;;3.83;3.52;;;;;;;;;;1889753;74;26256;-50
2022/06/27 05:49:27;;;;;;;3.27;3.08;;;;;;;;;;1889119;76;26265;-56
2022/06/27 05:52:00;;;;;;;3.40;3.20;;;;;;;;;;1888701;74;26736;-46
2022/06/27 05:54:28;;;;;;;3.67;3.30;;;;;;;;;;1889639;74;26264;-49
2022/06/27 05:56:56;;;;;;;4.55;3.10;;;;;;;;;;1883860;74;26300;-47
2022/06/27 05:59:24;;;;;;;3.10;2.90;;;;;;;;;;1883952;74;26269;-60
2022/06/27 06:01:53;;;;;;;3.27;3.17;;;;;;;;;;1862925;76;26743;-53
2022/06/27 06:04:21;;;;;;;3.95;3.40;;;;;;;;;;1872597;74;26273;-50
2022/06/27 06:06:49;;;;;;;5.87;3.17;;;;;;;;;;1885907;74;26865;-56
2022/06/27 06:09:16;;;;;;;5.87;3.72;;;;;;;;;;1884967;76;26277;-56
2022/06/27 06:11:46;;;;;;;3.92;3.62;;;;;;;;;;1887903;74;26303;-57
2022/06/27 06:14:13;;;;;;;4.60;3.90;;;;;;;;;;1880160;74;26693;-58
2022/06/27 06:16:40;;;;;;;3.50;3.30;;;;;;;;;;1888039;74;26287;-58
2022/06/27 06:19:08;;;;;;;4.28;3.70;;;;;;;;;;1884304;75;26322;-60
2022/06/27 06:21:35;;;;;;;4.30;3.92;;;;;;;;;;1885733;74;26265;-57
2022/06/27 06:24:03;;;;;;;5.35;3.80;;;;;;;;;;1888039;74;26312;-56
2022/06/27 06:26:30;;;;;;;3.80;3.60;;;;;;;;;;1887936;74;26287;-54
2022/06/27 06:29:01;;;;;;;3.90;3.70;;;;;;;;;;1900891;74;26262;-56
2022/06/27 06:31:26;;;;;;;3.67;3.47;;;;;;;;;;1888291;74;26367;-53
2022/06/27 06:33:55;;;;;;;4.20;3.85;;;;;;;;;;1888395;74;26367;-53
2022/06/27 06:36:23;;;;;;;3.92;3.70;;;;;;;;;;1890245;74;26330;-54
2022/06/27 06:38:51;;;;;;;4.40;4.20;;;;;;;;;;1902086;74;26250;-56
2022/06/27 06:41:19;;;;;;;4.55;3.77;;;;;;;;;;1893643;74;26241;-51
2022/06/27 06:43:46;;;;;;;4.22;3.87;;;;;;;;;;1881887;76;26274;-55
2022/06/27 06:46:14;;;;;;;3.58;3.37;;;;;;;;;;1879873;76;26332;-57
2022/06/27 06:48:41;;;;;;;4.30;3.90;;;;;;;;;;1871886;75;26737;-59
2022/06/27 06:51:09;;;;;;;4.17;3.77;;;;;;;;;;1869545;75;26316;-50
2022/06/27 06:53:36;;;;;;;5.58;3.70;;;;;;;;;;1887040;75;26757;-52
2022/06/27 06:56:05;;;;;;;4.67;3.90;;;;;;;;;;1880087;75;26257;-48
2022/06/27 06:58:34;;;;;;;5.97;4.40;;;;;;;;;;1878427;75;26258;-54
2022/06/27 07:01:03;;;;;;;4.22;3.90;;;;;;;;;;1880262;75;26347;-52
2022/06/27 07:03:30;;;;;;;4.28;3.92;;;;;;;;;;1875505;75;26301;-53
2022/06/27 07:05:58;;;;;;;4.45;4.15;;;;;;;;;;1874771;76;26300;-55
2022/06/27 07:08:25;;;;;;;4.20;4.00;;;;;;;;;;1864473;75;26973;-55
2022/06/27 07:10:52;;;;;;;4.45;4.00;;;;;;;;;;1872819;75;26819;-62
2022/06/27 07:13:20;;;;;;;5.33;3.83;;;;;;;;;;1870403;75;26727;-58
2022/06/27 07:15:47;;;;;;;5.95;3.70;;;;;;;;;;1874541;75;26269;-63
2022/06/27 07:18:15;;;;;;;4.20;3.90;;;;;;;;;;1875628;75;26370;-58
2022/06/27 07:20:43;;;;;;;4.62;4.22;;;;;;;;;;1879938;75;26209;-60
2022/06/27 07:23:11;;;;;;;4.00;3.70;;;;;;;;;;1871531;75;32655;-49
2022/06/27 07:25:38;;;;;;;4.67;3.72;;;;;;;;;;1865698;75;26288;-59
2022/06/27 07:28:07;;;;;;;10.35;4.30;;;;;;;;;;1873758;75;26327;-53
2022/06/27 07:30:36;;;;;;;4.25;3.83;;;;;;;;;;1892223;75;26237;-50
2022/06/27 07:33:03;;;;;;;4.83;3.80;;;;;;;;;;1882450;75;26327;-52
2022/06/27 07:35:31;;;;;;;4.03;3.77;;;;;;;;;;1870570;75;26288;-51
2022/06/27 07:37:58;;;;;;;4.37;4.03;;;;;;;;;;1875617;75;26705;-54
2022/06/27 07:40:25;;;;;;;4.20;3.90;;;;;;;;;;1875233;76;26263;-52
2022/06/27 07:42:54;;;;;;;4.05;3.75;;;;;;;;;;1864266;76;26470;-52
2022/06/27 07:45:22;;;;;;;4.25;3.83;;;;;;;;;;1876366;75;26299;-54
2022/06/27 07:47:50;;;;;;;4.08;3.77;;;;;;;;;;1877183;75;26324;-50
2022/06/27 07:53:14;;;;;;;3.98;3.52;;;;;;;;;;1877613;75;26790;-58
2022/06/27 07:55:46;;;;;;;5.08;4.10;;;;;;;;;;1891587;75;26646;-53
2022/06/27 07:58:19;;;;;;;4.55;3.85;;;;;;;;;;1896115;75;26292;-50
2022/06/27 08:00:48;;;;;;;4.30;4.00;;;;;;;;;;1875067;75;26253;-50
2022/06/27 08:06:04;;;;;;;3.98;3.72;;;;;;;;;;1877441;76;26352;-49
2022/06/27 08:08:32;;;;;;;4.75;4.22;;;;;;;;;;1869666;76;26359;-52
2022/06/27 08:11:00;;;;;;;4.10;3.80;;;;;;;;;;1885463;74;26572;-53
2022/06/27 08:13:28;;;;;;;4.15;3.80;;;;;;;;;;1863961;75;26323;-53
2022/06/27 08:15:55;;;;;;;4.45;3.40;;;;;;;;;;1854727;75;26350;-50
2022/06/27 08:18:23;;;;;;;4.08;3.72;;;;;;;;;;1865462;75;26354;-53
2022/06/27 08:20:52;;;;;;;3.70;3.50;;;;;;;;;;1895425;75;26254;-54
2022/06/27 08:23:20;;;;;;;5.22;3.40;;;;;;;;;;1877865;75;27378;-50
2022/06/27 08:25:47;;;;;;;3.60;3.40;;;;;;;;;;1870220;75;25337;-56
2022/06/27 08:28:15;;;;;;;3.85;3.55;;;;;;;;;;1873961;75;26733;-52
2022/06/27 08:30:44;;;;;;;3.87;3.58;;;;;;;;;;1874488;76;26738;-55
2022/06/27 08:33:12;;;;;;;3.40;3.20;;;;;;;;;;1879713;75;26260;-56
2022/06/27 08:35:49;;;;;;;3.27;3.12;;;;;;;;;;1877419;76;26277;-53
2022/06/27 08:38:18;;;;;;;3.45;3.35;;;;;;;;;;1863119;75;26323;-48
2022/06/27 08:40:48;;;;;;;3.40;3.20;;;;;;;;;;1881256;75;26350;-52
2022/06/27 08:43:15;;;;;;;2.95;2.85;;;;;;;;;;1873949;75;26307;-50
2022/06/27 08:45:44;;;;;;;2.90;2.80;;;;;;;;;;1873675;76;26278;-52
2022/06/27 08:48:11;;;;;;;5.03;3.30;;;;;;;;;;1884088;75;26277;-53
2022/06/27 08:50:40;;;;;;;3.08;2.98;;;;;;;;;;1875899;75;26728;-54
2022/06/27 08:53:08;;;;;;;3.55;3.25;;;;;;;;;;1875084;76;26384;-52
2022/06/27 08:55:35;;;;;;;3.25;3.10;;;;;;;;;;1872610;75;26276;-48
2022/06/27 08:58:11;;;;;;;3.20;2.85;;;;;;;;;;1887708;75;26728;-53
2022/06/27 09:00:36;;;;;;;3.30;3.02;;;;;;;;;;1878021;75;26333;-51
2022/06/27 09:03:03;;;;;;;3.20;3.00;;;;;;;;;;1864544;75;26757;-53
2022/06/27 09:05:31;;;;;;;2.92;2.72;;;;;;;;;;1873706;75;26308;-51
2022/06/27 09:08:03;;;;;;;3.27;3.10;;;;;;;;;;1872757;75;26324;-50
2022/06/27 09:10:32;;;;;;;3.10;2.90;;;;;;;;;;1883353;75;26269;-48
2022/06/27 09:13:00;;;;;;;3.00;2.90;;;;;;;;;;1877204;76;26254;-48
2022/06/27 09:15:41;;;;;;;2.77;2.67;;;;;;;;;;1873907;75;26350;-47
2022/06/27 09:18:09;;;;;;;3.05;2.95;;;;;;;;;;1878633;75;26287;-53
2022/06/27 09:20:47;;;;;;;2.90;2.80;;;;;;;;;;1883821;75;26249;-51
2022/06/27 09:23:31;;;;;;;2.92;2.72;;;;;;;;;;1876826;76;26268;-49
2022/06/27 09:26:19;;;;;;;2.80;2.60;;;;;;;;;;1876921;75;26292;-49
2022/06/27 09:28:54;;;;;;;2.70;2.60;;;;;;;;;;1880341;76;26712;-54
2022/06/27 09:31:30;;;;;;;2.70;2.60;;;;;;;;;;1885158;75;26334;-48
2022/06/27 09:34:14;;;;;;;2.87;2.77;;;;;;;;;;1880724;76;26285;-47
2022/06/27 09:36:51;;;;;;;2.90;2.80;;;;;;;;;;1868728;76;26403;-52
2022/06/27 09:39:19;;;;;;;3.00;2.85;;;;;;;;;;1877435;75;26362;-56
2022/06/27 09:41:49;;;;;;;3.15;2.70;;;;;;;;;;1865540;75;26787;-45
2022/06/27 09:44:16;;;;;;;3.50;2.62;;;;;;;;;;1877867;76;26340;-51
2022/06/27 09:46:45;;;;;;;3.15;2.95;;;;;;;;;;1879644;75;26227;-52
2022/06/27 09:49:14;;;;;;;3.05;2.85;;;;;;;;;;1878056;76;26249;-48
2022/06/27 09:51:42;;;;;;;2.70;2.60;;;;;;;;;;1882058;75;26202;-52
2022/06/27 09:54:11;;;;;;;2.90;2.80;;;;;;;;;;1870139;76;26784;-56
2022/06/27 09:56:41;;;;;;;2.72;2.58;;;;;;;;;;1874497;75;26268;-57
2022/06/27 09:59:10;;;;;;;3.67;2.72;;;;;;;;;;1877570;75;26662;-52
2022/06/27 10:01:40;;;;;;;2.90;2.75;;;;;;;;;;1868097;76;26257;-53
2022/06/27 10:04:08;;;;;;;2.90;2.70;;;;;;;;;;1880119;76;26281;-51
2022/06/27 10:06:37;;;;;;;2.92;2.83;;;;;;;;;;1879625;75;26297;-55
2022/06/27 10:09:08;;;;;;;2.87;2.77;;;;;;;;;;1888020;75;26720;-54
2022/06/27 10:11:39;;;;;;;2.67;2.58;;;;;;;;;;1869439;75;26347;-52
2022/06/27 10:14:13;;;;;;;2.77;2.67;;;;;;;;;;1874463;75;26284;-53
2022/06/27 10:16:45;;;;;;;3.00;2.90;;;;;;;;;;1874270;75;26263;-52
2022/06/27 10:19:14;;;;;;;2.90;2.80;;;;;;;;;;1856589;75;28178;-54
2022/06/27 10:21:42;;;;;;;3.00;2.83;;;;;;;;;;1865192;76;26925;-54
2022/06/27 10:24:29;;;;;;;2.85;2.75;;;;;;;;;;1874276;76;26635;-52
2022/06/27 10:26:53;;;;;;;2.72;2.62;;;;;;;;;;1874755;76;26774;-50
2022/06/27 10:29:34;;;;;;;2.87;2.77;;;;;;;;;;1878181;76;26301;-49
2022/06/27 10:32:02;;;;;;;2.80;2.70;;;;;;;;;;1885804;75;26242;-51
2022/06/27 10:34:40;;;;;;;2.85;2.75;;;;;;;;;;1879164;75;26551;-48
2022/06/27 10:37:24;;;;;;;2.90;2.70;;;;;;;;;;1871918;75;26363;-53
2022/06/27 10:39:52;;;;;;;2.90;2.77;;;;;;;;;;1868920;75;26294;-49
2022/06/27 10:42:37;;;;;;;2.83;2.72;;;;;;;;;;1877541;76;26848;-47
2022/06/27 10:45:21;;;;;;;3.12;3.02;;;;;;;;;;1885461;75;26872;-47
2022/06/27 10:47:49;;;;;;;3.17;3.00;;;;;;;;;;1855131;76;26276;-50
2022/06/27 10:50:18;;;;;;;3.00;2.90;;;;;;;;;;1819610;78;26800;-48
2022/06/27 10:52:46;;;;;;;2.95;2.80;;;;;;;;;;1844883;76;26269;-53
2022/06/27 10:55:27;;;;;;;2.80;2.70;;;;;;;;;;1846535;76;26272;-49
2022/06/27 10:57:55;;;;;;;2.70;2.60;;;;;;;;;;1845275;77;26209;-56
2022/06/27 11:00:30;;;;;;;2.75;2.55;;;;;;;;;;1843921;76;26260;-48
2022/06/27 11:02:58;;;;;;;3.22;2.90;;;;;;;;;;1799576;76;26296;-55
2022/06/27 11:05:26;;;;;;;3.20;3.00;;;;;;;;;;1839429;76;26295;-56
2022/06/27 11:07:53;;;;;;;4.33;2.80;;;;;;;;;;1852059;77;26312;-50
2022/06/27 11:10:24;;;;;;;2.98;2.60;;;;;;;;;;1850652;76;26256;-53
2022/06/27 11:12:52;;;;;;;3.08;2.87;;;;;;;;;;1818546;79;26360;-59
2022/06/27 11:15:19;;;;;;;2.95;2.85;;;;;;;;;;1838209;78;26766;-56
2022/06/27 11:17:46;;;;;;;3.10;2.90;;;;;;;;;;1835750;78;26276;-60
2022/06/27 11:20:18;;;;;;;2.90;2.80;;;;;;;;;;1838728;78;26280;-61
2022/06/27 11:22:46;;;;;;;4.67;2.83;;;;;;;;;;1822056;78;26320;-55
2022/06/27 11:25:14;;;;;;;2.90;2.80;;;;;;;;;;1820452;78;26257;-59
2022/06/27 11:27:55;;;;;;;2.62;2.52;;;;;;;;;;1813132;78;27466;-59
2022/06/27 11:33:20;;;;;;;2.98;2.87;;;;;;;;;;1852519;77;26312;-55
2022/06/27 11:35:48;;;;;;;3.00;2.90;;;;;;;;;;1852670;77;26268;-57
2022/06/27 11:38:26;;;;;;;2.87;2.77;;;;;;;;;;1852627;77;26296;-51
2022/06/27 11:41:07;;;;;;;3.58;2.70;;;;;;;;;;1850641;77;26275;-51
2022/06/27 11:43:51;;;;;;;2.98;2.70;;;;;;;;;;1851353;76;26299;-56
2022/06/27 11:46:22;;;;;;;2.90;2.70;;;;;;;;;;1852769;77;26287;-53
2022/06/27 11:48:51;;;;;;;2.77;2.67;;;;;;;;;;1850375;77;26317;-50
2022/06/27 11:51:26;;;;;;;2.62;2.52;;;;;;;;;;1853832;76;26589;-54
2022/06/27 11:53:54;;;;;;;2.87;2.75;;;;;;;;;;1852065;76;26346;-53
2022/06/27 11:56:25;;;;;;;3.22;2.92;;;;;;;;;;1819018;77;27364;-48
2022/06/27 11:58:52;;;;;;;3.60;3.00;;;;;;;;;;1852842;76;27351;-53
2022/06/27 12:01:20;;;;;;;2.62;2.52;;;;;;;;;;1851572;76;26267;-54
2022/06/27 12:04:06;;;;;;;2.90;2.80;;;;;;;;;;1823081;77;26369;-51
2022/06/27 12:06:41;;;;;;;2.70;2.60;;;;;;;;;;1837498;77;26272;-58
2022/06/27 12:09:08;;;;;;;2.83;2.72;;;;;;;;;;1852640;76;26297;-53
2022/06/27 12:11:36;;;;;;;2.77;2.67;;;;;;;;;;1853444;76;26396;-52
2022/06/27 12:14:03;;;;;;;2.77;2.60;;;;;;;;;;1853087;76;26254;-52
2022/06/27 12:16:32;;;;;;;2.80;2.70;;;;;;;;;;1852941;76;26264;-52
2022/06/27 12:19:01;;;;;;;2.83;2.72;;;;;;;;;;1847045;76;26280;-50
2022/06/27 12:21:29;;;;;;;2.72;2.62;;;;;;;;;;1850182;77;26588;-58
2022/06/27 12:23:56;;;;;;;2.90;2.80;;;;;;;;;;1848877;76;26268;-58
2022/06/27 12:26:24;;;;;;;2.75;2.65;;;;;;;;;;1847631;77;26269;-56
2022/06/27 12:28:51;;;;;;;2.67;2.58;;;;;;;;;;1819636;78;26314;-55
2022/06/27 12:31:18;;;;;;;2.60;2.50;;;;;;;;;;1838336;78;26206;-56
2022/06/27 12:33:46;;;;;;;2.70;2.60;;;;;;;;;;1826393;77;26700;-56
2022/06/27 12:36:14;;;;;;;2.70;2.60;;;;;;;;;;1817913;78;26275;-56
2022/06/27 12:38:42;;;;;;;2.83;2.72;;;;;;;;;;1817424;78;26782;-56
2022/06/27 12:41:12;;;;;;;2.87;2.67;;;;;;;;;;1855885;76;26268;-52
2022/06/27 12:43:39;;;;;;;2.80;2.70;;;;;;;;;;1811107;78;26687;-48
2022/06/27 12:46:07;;;;;;;3.02;2.92;;;;;;;;;;1834191;77;26304;-51
2022/06/27 12:48:34;;;;;;;2.90;2.80;;;;;;;;;;1878805;76;26734;-53
2022/06/27 12:51:01;;;;;;;2.80;2.70;;;;;;;;;;1873229;76;26277;-53
2022/06/27 12:53:29;;;;;;;2.90;2.80;;;;;;;;;;1878158;75;26258;-49
2022/06/27 12:56:01;;;;;;;3.25;3.15;;;;;;;;;;1877800;75;26323;-49
2022/06/27 12:58:25;;;;;;;3.30;3.10;;;;;;;;;;1877132;76;26337;-55
2022/06/27 13:00:53;;;;;;;2.80;2.70;;;;;;;;;;1874694;75;26339;-48
2022/06/27 13:03:20;;;;;;;3.12;3.02;;;;;;;;;;1878050;76;26273;-51
2022/06/27 13:05:47;;;;;;;2.90;2.80;;;;;;;;;;1877590;75;26273;-50
2022/06/27 13:08:16;;;;;;;2.80;2.70;;;;;;;;;;1872125;75;26871;-50
2022/06/27 13:10:44;;;;;;;3.08;2.80;;;;;;;;;;1877152;76;25845;-53
2022/06/27 13:13:11;;;;;;;3.15;2.95;;;;;;;;;;1877782;75;26294;-55
2022/06/27 13:15:39;;;;;;;2.90;2.67;;;;;;;;;;1882416;75;26312;-58
2022/06/27 13:18:07;;;;;;;3.00;2.87;;;;;;;;;;1874042;75;26266;-49
2022/06/27 13:20:34;;;;;;;2.75;2.55;;;;;;;;;;1880297;75;26277;-47
2022/06/27 13:23:02;;;;;;;3.10;3.00;;;;;;;;;;1876637;75;26217;-52
2022/06/27 13:25:29;;;;;;;3.10;2.90;;;;;;;;;;1879325;75;26324;-51
2022/06/27 13:27:57;;;;;;;3.00;2.90;;;;;;;;;;1864898;75;26743;-47
2022/06/27 13:30:24;;;;;;;2.95;2.80;;;;;;;;;;1863981;75;26324;-55
2022/06/27 13:32:52;;;;;;;2.80;2.60;;;;;;;;;;1865698;75;26324;-53
2022/06/27 13:35:19;;;;;;;2.72;2.62;;;;;;;;;;1879181;76;26238;-54
2022/06/27 13:37:46;;;;;;;2.70;2.60;;;;;;;;;;1875298;76;26739;-53
2022/06/27 13:40:14;;;;;;;2.83;2.70;;;;;;;;;;1875591;75;26241;-53
2022/06/27 13:42:41;;;;;;;2.80;2.70;;;;;;;;;;1877369;75;26225;-52
2022/06/27 13:45:09;;;;;;;3.10;3.00;;;;;;;;;;1884117;75;27807;-53
2022/06/27 13:47:37;;;;;;;3.05;2.90;;;;;;;;;;1877193;75;26829;-52
2022/06/27 13:50:05;;;;;;;2.90;2.80;;;;;;;;;;1878886;75;26258;-53
2022/06/27 13:52:34;;;;;;;3.05;2.95;;;;;;;;;;1880459;75;26107;-53
2022/06/27 13:55:02;;;;;;;3.10;3.00;;;;;;;;;;1877271;76;26355;-54
2022/06/27 13:57:29;;;;;;;3.02;2.92;;;;;;;;;;1875955;75;26921;-48
2022/06/27 13:59:56;;;;;;;3.30;3.10;;;;;;;;;;1865724;75;26765;-52
2022/06/27 14:02:24;;;;;;;3.00;2.90;;;;;;;;;;1870848;75;26698;-50
2022/06/27 14:04:51;;;;;;;3.00;2.90;;;;;;;;;;1870754;75;26206;-51
2022/06/27 14:07:44;;;;;;;3.00;2.90;;;;;;;;;;1873842;76;26279;-59
2022/06/27 14:10:09;;;;;;;3.15;3.05;;;;;;;;;;1871044;75;26414;-49
2022/06/27 14:12:37;;;;;;;2.83;2.72;;;;;;;;;;1877947;75;26775;-47
2022/06/27 14:15:05;;;;;;;3.02;2.92;;;;;;;;;;1878614;75;26308;-47
2022/06/27 14:17:32;;;;;;;3.08;2.98;;;;;;;;;;1874172;76;26320;-54
2022/06/27 14:19:59;;;;;;;2.87;2.77;;;;;;;;;;1884098;75;26300;-57
2022/06/27 14:22:27;;;;;;;7.20;2.87;;;;;;;;;;1879893;76;26316;-47
2022/06/27 14:24:54;;;;;;;3.20;3.10;;;;;;;;;;1872643;76;26808;-53
2022/06/27 14:27:21;;;;;;;2.80;2.70;;;;;;;;;;1878075;76;26824;-49
2022/06/27 14:29:49;;;;;;;3.25;3.15;;;;;;;;;;1870057;75;26329;-52
2022/06/27 14:32:16;;;;;;;3.10;3.00;;;;;;;;;;1872199;75;26729;-56
2022/06/27 14:34:44;;;;;;;3.10;3.00;;;;;;;;;;1888133;75;26354;-54
2022/06/27 14:37:11;;;;;;;3.10;2.92;;;;;;;;;;1872710;75;26272;-47
2022/06/27 14:39:38;;;;;;;2.90;2.80;;;;;;;;;;1879606;75;26292;-50
2022/06/27 14:42:06;;;;;;;3.05;2.95;;;;;;;;;;1867479;75;26269;-59
2022/06/27 14:44:34;;;;;;;3.10;3.00;;;;;;;;;;1870304;75;26283;-52
2022/06/27 14:47:04;;;;;;;3.00;2.90;;;;;;;;;;1858837;76;26327;-51
2022/06/27 14:49:31;;;;;;;2.83;2.72;;;;;;;;;;1912411;74;26266;-51
2022/06/27 14:51:58;;;;;;;2.90;2.80;;;;;;;;;;1879286;74;26311;-48
2022/06/27 14:54:26;;;;;;;2.98;2.87;;;;;;;;;;1876443;76;26693;-52
2022/06/27 14:56:53;;;;;;;2.92;2.83;;;;;;;;;;1877617;76;26320;-52
2022/06/27 14:59:21;;;;;;;3.00;2.90;;;;;;;;;;1906872;74;26312;-47
2022/06/27 15:01:48;;;;;;;3.00;2.90;;;;;;;;;;1882137;74;26253;-52
2022/06/27 15:04:15;;;;;;;3.17;3.08;;;;;;;;;;1870947;75;26310;-47